sensor_id;sensor_type;location;lat;lon;timestamp;P1;durP1;ratioP1;P2;durP2;ratioP2
67053;SDS011;53960;51.826;5.850;2024-02-21T00:00:40;23.60;;;7.70;;
67053;SDS011;53960;51.826;5.850;2024-02-21T00:03:06;23.30;;;8.45;;
67053;SDS011;53960;51.826;5.850;2024-02-21T00:05:34;19.97;;;7.47;;
67053;SDS011;53960;51.826;5.850;2024-02-21T00:07:59;21.30;;;7.85;;
67053;SDS011;53960;51.826;5.850;2024-02-21T00:10:25;23.13;;;7.60;;
67053;SDS011;53960;51.826;5.850;2024-02-21T00:12:51;21.92;;;7.55;;
67053;SDS011;53960;51.826;5.850;2024-02-21T00:15:17;21.73;;;8.02;;
67053;SDS011;53960;51.826;5.850;2024-02-21T00:17:43;20.17;;;6.57;;
67053;SDS011;53960;51.826;5.850;2024-02-21T00:20:10;20.20;;;7.57;;
67053;SDS011;53960;51.826;5.850;2024-02-21T00:22:36;21.65;;;8.18;;
67053;SDS011;53960;51.826;5.850;2024-02-21T00:25:03;17.02;;;7.10;;
67053;SDS011;53960;51.826;5.850;2024-02-21T00:27:28;19.90;;;7.90;;
67053;SDS011;53960;51.826;5.850;2024-02-21T00:29:54;16.60;;;7.33;;
67053;SDS011;53960;51.826;5.850;2024-02-21T00:32:20;16.95;;;6.78;;
67053;SDS011;53960;51.826;5.850;2024-02-21T00:34:46;20.43;;;7.80;;
67053;SDS011;53960;51.826;5.850;2024-02-21T00:37:11;20.35;;;7.40;;
67053;SDS011;53960;51.826;5.850;2024-02-21T00:39:37;20.77;;;7.47;;
67053;SDS011;53960;51.826;5.850;2024-02-21T00:42:03;16.52;;;7.20;;
67053;SDS011;53960;51.826;5.850;2024-02-21T00:44:29;20.83;;;7.35;;
67053;SDS011;53960;51.826;5.850;2024-02-21T00:46:54;20.90;;;7.80;;
67053;SDS011;53960;51.826;5.850;2024-02-21T00:49:20;19.25;;;6.60;;
67053;SDS011;53960;51.826;5.850;2024-02-21T00:51:47;20.97;;;7.10;;
67053;SDS011;53960;51.826;5.850;2024-02-21T00:54:13;17.33;;;6.95;;
67053;SDS011;53960;51.826;5.850;2024-02-21T00:56:38;23.05;;;7.68;;
67053;SDS011;53960;51.826;5.850;2024-02-21T00:59:05;18.95;;;6.70;;
67053;SDS011;53960;51.826;5.850;2024-02-21T01:01:30;19.67;;;7.10;;
67053;SDS011;53960;51.826;5.850;2024-02-21T01:03:56;19.90;;;7.30;;
67053;SDS011;53960;51.826;5.850;2024-02-21T01:06:22;19.53;;;7.50;;
67053;SDS011;53960;51.826;5.850;2024-02-21T01:08:48;16.52;;;6.85;;
67053;SDS011;53960;51.826;5.850;2024-02-21T01:11:14;19.95;;;7.00;;
67053;SDS011;53960;51.826;5.850;2024-02-21T01:13:43;18.83;;;6.88;;
67053;SDS011;53960;51.826;5.850;2024-02-21T01:16:09;16.20;;;6.40;;
67053;SDS011;53960;51.826;5.850;2024-02-21T01:18:38;18.40;;;6.88;;
67053;SDS011;53960;51.826;5.850;2024-02-21T01:21:07;19.42;;;7.65;;
67053;SDS011;53960;51.826;5.850;2024-02-21T01:23:34;18.55;;;7.32;;
67053;SDS011;53960;51.826;5.850;2024-02-21T01:26:00;18.08;;;6.47;;
67053;SDS011;53960;51.826;5.850;2024-02-21T01:28:25;26.50;;;7.30;;
67053;SDS011;53960;51.826;5.850;2024-02-21T01:30:51;21.10;;;6.90;;
67053;SDS011;53960;51.826;5.850;2024-02-21T01:33:17;19.57;;;6.77;;
67053;SDS011;53960;51.826;5.850;2024-02-21T01:35:42;17.58;;;7.03;;
67053;SDS011;53960;51.826;5.850;2024-02-21T01:38:09;16.63;;;6.13;;
67053;SDS011;53960;51.826;5.850;2024-02-21T01:40:35;15.95;;;6.65;;
67053;SDS011;53960;51.826;5.850;2024-02-21T01:43:02;17.90;;;6.65;;
67053;SDS011;53960;51.826;5.850;2024-02-21T01:45:28;14.82;;;5.90;;
67053;SDS011;53960;51.826;5.850;2024-02-21T01:47:53;21.90;;;6.67;;
67053;SDS011;53960;51.826;5.850;2024-02-21T01:50:19;21.40;;;7.13;;
67053;SDS011;53960;51.826;5.850;2024-02-21T01:52:47;24.30;;;7.30;;
67053;SDS011;53960;51.826;5.850;2024-02-21T01:55:15;16.47;;;6.67;;
67053;SDS011;53960;51.826;5.850;2024-02-21T01:57:42;16.50;;;6.35;;
67053;SDS011;53960;51.826;5.850;2024-02-21T02:00:11;16.40;;;6.82;;
67053;SDS011;53960;51.826;5.850;2024-02-21T02:02:39;15.45;;;6.68;;
67053;SDS011;53960;51.826;5.850;2024-02-21T02:05:06;18.85;;;6.85;;
67053;SDS011;53960;51.826;5.850;2024-02-21T02:07:33;16.50;;;6.17;;
67053;SDS011;53960;51.826;5.850;2024-02-21T02:09:59;20.27;;;6.05;;
67053;SDS011;53960;51.826;5.850;2024-02-21T02:12:25;20.00;;;7.15;;
67053;SDS011;53960;51.826;5.850;2024-02-21T02:15:01;18.23;;;6.45;;
67053;SDS011;53960;51.826;5.850;2024-02-21T02:17:31;20.80;;;6.83;;
67053;SDS011;53960;51.826;5.850;2024-02-21T02:19:56;19.20;;;6.38;;
67053;SDS011;53960;51.826;5.850;2024-02-21T02:22:23;19.07;;;6.30;;
67053;SDS011;53960;51.826;5.850;2024-02-21T02:24:53;16.20;;;5.80;;
67053;SDS011;53960;51.826;5.850;2024-02-21T02:27:20;18.35;;;6.45;;
67053;SDS011;53960;51.826;5.850;2024-02-21T02:29:45;20.25;;;6.85;;
67053;SDS011;53960;51.826;5.850;2024-02-21T02:32:12;19.40;;;6.40;;
67053;SDS011;53960;51.826;5.850;2024-02-21T02:34:37;14.30;;;6.05;;
67053;SDS011;53960;51.826;5.850;2024-02-21T02:37:03;17.95;;;5.85;;
67053;SDS011;53960;51.826;5.850;2024-02-21T02:39:29;16.47;;;5.73;;
67053;SDS011;53960;51.826;5.850;2024-02-21T02:41:54;16.47;;;6.27;;
67053;SDS011;53960;51.826;5.850;2024-02-21T02:44:20;20.55;;;6.35;;
67053;SDS011;53960;51.826;5.850;2024-02-21T02:46:46;18.07;;;6.50;;
67053;SDS011;53960;51.826;5.850;2024-02-21T02:49:11;16.27;;;5.25;;
67053;SDS011;53960;51.826;5.850;2024-02-21T02:51:40;16.83;;;5.43;;
67053;SDS011;53960;51.826;5.850;2024-02-21T02:54:08;18.05;;;5.90;;
67053;SDS011;53960;51.826;5.850;2024-02-21T02:56:34;20.73;;;6.13;;
67053;SDS011;53960;51.826;5.850;2024-02-21T02:59:00;16.30;;;5.40;;
67053;SDS011;53960;51.826;5.850;2024-02-21T03:01:26;17.05;;;5.45;;
67053;SDS011;53960;51.826;5.850;2024-02-21T03:03:52;17.58;;;5.10;;
67053;SDS011;53960;51.826;5.850;2024-02-21T03:06:19;15.90;;;5.47;;
67053;SDS011;53960;51.826;5.850;2024-02-21T03:08:44;14.80;;;5.37;;
67053;SDS011;53960;51.826;5.850;2024-02-21T03:11:10;13.38;;;5.20;;
67053;SDS011;53960;51.826;5.850;2024-02-21T03:13:36;16.10;;;5.20;;
67053;SDS011;53960;51.826;5.850;2024-02-21T03:16:02;17.33;;;5.15;;
67053;SDS011;53960;51.826;5.850;2024-02-21T03:18:28;11.65;;;4.78;;
67053;SDS011;53960;51.826;5.850;2024-02-21T03:20:53;13.10;;;4.80;;
67053;SDS011;53960;51.826;5.850;2024-02-21T03:23:19;16.57;;;4.90;;
67053;SDS011;53960;51.826;5.850;2024-02-21T03:25:45;15.98;;;4.15;;
67053;SDS011;53960;51.826;5.850;2024-02-21T03:28:11;15.10;;;4.43;;
67053;SDS011;53960;51.826;5.850;2024-02-21T03:30:36;13.80;;;4.83;;
67053;SDS011;53960;51.826;5.850;2024-02-21T03:33:02;13.40;;;4.45;;
67053;SDS011;53960;51.826;5.850;2024-02-21T03:35:28;16.70;;;4.87;;
67053;SDS011;53960;51.826;5.850;2024-02-21T03:37:54;16.33;;;4.40;;
67053;SDS011;53960;51.826;5.850;2024-02-21T03:40:20;17.60;;;4.65;;
67053;SDS011;53960;51.826;5.850;2024-02-21T03:42:46;15.03;;;4.60;;
67053;SDS011;53960;51.826;5.850;2024-02-21T03:45:12;16.83;;;5.03;;
67053;SDS011;53960;51.826;5.850;2024-02-21T03:47:38;14.10;;;3.97;;
67053;SDS011;53960;51.826;5.850;2024-02-21T03:50:04;16.40;;;4.78;;
67053;SDS011;53960;51.826;5.850;2024-02-21T03:52:30;13.25;;;4.53;;
67053;SDS011;53960;51.826;5.850;2024-02-21T03:54:56;14.97;;;4.17;;
67053;SDS011;53960;51.826;5.850;2024-02-21T03:57:22;15.17;;;4.83;;
67053;SDS011;53960;51.826;5.850;2024-02-21T03:59:50;13.50;;;3.93;;
67053;SDS011;53960;51.826;5.850;2024-02-21T04:02:17;15.23;;;4.43;;
67053;SDS011;53960;51.826;5.850;2024-02-21T04:04:43;13.93;;;4.53;;
67053;SDS011;53960;51.826;5.850;2024-02-21T04:07:12;12.68;;;4.15;;
67053;SDS011;53960;51.826;5.850;2024-02-21T04:09:38;12.38;;;4.20;;
67053;SDS011;53960;51.826;5.850;2024-02-21T04:12:05;14.75;;;4.15;;
67053;SDS011;53960;51.826;5.850;2024-02-21T04:14:31;11.80;;;3.80;;
67053;SDS011;53960;51.826;5.850;2024-02-21T04:16:56;15.07;;;4.50;;
67053;SDS011;53960;51.826;5.850;2024-02-21T04:19:22;12.63;;;3.55;;
67053;SDS011;53960;51.826;5.850;2024-02-21T04:21:48;12.03;;;4.63;;
67053;SDS011;53960;51.826;5.850;2024-02-21T04:24:13;10.13;;;3.88;;
67053;SDS011;53960;51.826;5.850;2024-02-21T04:26:39;13.70;;;4.10;;
67053;SDS011;53960;51.826;5.850;2024-02-21T04:29:05;10.82;;;4.60;;
67053;SDS011;53960;51.826;5.850;2024-02-21T04:31:34;11.77;;;3.90;;
67053;SDS011;53960;51.826;5.850;2024-02-21T04:34:00;13.15;;;4.47;;
67053;SDS011;53960;51.826;5.850;2024-02-21T04:36:25;13.47;;;4.17;;
67053;SDS011;53960;51.826;5.850;2024-02-21T04:38:51;15.87;;;4.33;;
67053;SDS011;53960;51.826;5.850;2024-02-21T04:41:17;12.47;;;4.00;;
67053;SDS011;53960;51.826;5.850;2024-02-21T04:43:42;12.70;;;4.83;;
67053;SDS011;53960;51.826;5.850;2024-02-21T04:46:08;17.17;;;4.50;;
67053;SDS011;53960;51.826;5.850;2024-02-21T04:48:35;12.17;;;4.60;;
67053;SDS011;53960;51.826;5.850;2024-02-21T04:51:00;14.77;;;4.63;;
67053;SDS011;53960;51.826;5.850;2024-02-21T04:53:26;15.03;;;4.53;;
67053;SDS011;53960;51.826;5.850;2024-02-21T04:55:52;14.63;;;4.10;;
67053;SDS011;53960;51.826;5.850;2024-02-21T04:58:17;14.23;;;5.07;;
67053;SDS011;53960;51.826;5.850;2024-02-21T05:00:43;12.40;;;4.57;;
67053;SDS011;53960;51.826;5.850;2024-02-21T05:03:09;15.93;;;5.30;;
67053;SDS011;53960;51.826;5.850;2024-02-21T05:05:34;12.20;;;4.63;;
67053;SDS011;53960;51.826;5.850;2024-02-21T05:08:00;14.90;;;5.40;;
67053;SDS011;53960;51.826;5.850;2024-02-21T05:10:27;10.83;;;4.53;;
67053;SDS011;53960;51.826;5.850;2024-02-21T05:12:53;12.75;;;4.38;;
67053;SDS011;53960;51.826;5.850;2024-02-21T05:15:19;11.13;;;4.17;;
67053;SDS011;53960;51.826;5.850;2024-02-21T05:17:45;12.37;;;5.10;;
67053;SDS011;53960;51.826;5.850;2024-02-21T05:20:11;14.30;;;4.63;;
67053;SDS011;53960;51.826;5.850;2024-02-21T05:22:37;13.93;;;4.40;;
67053;SDS011;53960;51.826;5.850;2024-02-21T05:25:02;15.90;;;5.10;;
67053;SDS011;53960;51.826;5.850;2024-02-21T05:27:28;12.40;;;4.37;;
67053;SDS011;53960;51.826;5.850;2024-02-21T05:29:54;16.60;;;5.00;;
67053;SDS011;53960;51.826;5.850;2024-02-21T05:32:19;17.43;;;5.13;;
67053;SDS011;53960;51.826;5.850;2024-02-21T05:34:48;15.97;;;4.67;;
67053;SDS011;53960;51.826;5.850;2024-02-21T05:37:15;12.27;;;4.78;;
67053;SDS011;53960;51.826;5.850;2024-02-21T05:39:40;13.13;;;4.70;;
67053;SDS011;53960;51.826;5.850;2024-02-21T05:42:07;11.77;;;4.53;;
67053;SDS011;53960;51.826;5.850;2024-02-21T05:44:33;14.47;;;4.80;;
67053;SDS011;53960;51.826;5.850;2024-02-21T05:46:58;12.97;;;5.13;;
67053;SDS011;53960;51.826;5.850;2024-02-21T05:49:24;17.13;;;5.38;;
67053;SDS011;53960;51.826;5.850;2024-02-21T05:51:50;18.93;;;5.47;;
67053;SDS011;53960;51.826;5.850;2024-02-21T05:54:15;15.18;;;4.55;;
67053;SDS011;53960;51.826;5.850;2024-02-21T05:56:44;12.20;;;4.37;;
67053;SDS011;53960;51.826;5.850;2024-02-21T05:59:11;12.77;;;4.70;;
67053;SDS011;53960;51.826;5.850;2024-02-21T06:01:36;15.63;;;4.83;;
67053;SDS011;53960;51.826;5.850;2024-02-21T06:04:02;12.98;;;4.10;;
67053;SDS011;53960;51.826;5.850;2024-02-21T06:06:29;12.68;;;4.10;;
67053;SDS011;53960;51.826;5.850;2024-02-21T06:08:55;12.82;;;4.20;;
67053;SDS011;53960;51.826;5.850;2024-02-21T06:11:22;16.77;;;5.03;;
67053;SDS011;53960;51.826;5.850;2024-02-21T06:13:47;14.75;;;4.40;;
67053;SDS011;53960;51.826;5.850;2024-02-21T06:16:13;12.70;;;4.70;;
67053;SDS011;53960;51.826;5.850;2024-02-21T06:18:39;14.02;;;4.32;;
67053;SDS011;53960;51.826;5.850;2024-02-21T06:21:04;17.13;;;4.90;;
67053;SDS011;53960;51.826;5.850;2024-02-21T06:23:30;12.00;;;4.37;;
67053;SDS011;53960;51.826;5.850;2024-02-21T06:25:55;14.23;;;5.00;;
67053;SDS011;53960;51.826;5.850;2024-02-21T06:28:20;15.70;;;5.10;;
67053;SDS011;53960;51.826;5.850;2024-02-21T06:30:46;16.37;;;5.50;;
67053;SDS011;53960;51.826;5.850;2024-02-21T06:33:11;15.17;;;5.10;;
67053;SDS011;53960;51.826;5.850;2024-02-21T06:35:37;13.87;;;4.83;;
67053;SDS011;53960;51.826;5.850;2024-02-21T06:38:05;13.38;;;5.47;;
67053;SDS011;53960;51.826;5.850;2024-02-21T06:40:31;16.13;;;5.07;;
67053;SDS011;53960;51.826;5.850;2024-02-21T06:43:03;17.55;;;5.72;;
67053;SDS011;53960;51.826;5.850;2024-02-21T06:45:28;15.13;;;5.37;;
67053;SDS011;53960;51.826;5.850;2024-02-21T06:47:54;20.83;;;5.50;;
67053;SDS011;53960;51.826;5.850;2024-02-21T06:50:19;12.73;;;5.25;;
67053;SDS011;53960;51.826;5.850;2024-02-21T06:52:44;13.80;;;5.53;;
67053;SDS011;53960;51.826;5.850;2024-02-21T06:55:10;13.63;;;4.63;;
67053;SDS011;53960;51.826;5.850;2024-02-21T06:57:35;17.70;;;5.83;;
67053;SDS011;53960;51.826;5.850;2024-02-21T07:00:00;15.60;;;5.03;;
67053;SDS011;53960;51.826;5.850;2024-02-21T07:02:25;17.07;;;5.67;;
67053;SDS011;53960;51.826;5.850;2024-02-21T07:04:51;14.93;;;5.10;;
67053;SDS011;53960;51.826;5.850;2024-02-21T07:07:16;16.60;;;5.87;;
67053;SDS011;53960;51.826;5.850;2024-02-21T07:09:41;14.03;;;5.40;;
67053;SDS011;53960;51.826;5.850;2024-02-21T07:12:07;15.23;;;5.23;;
67053;SDS011;53960;51.826;5.850;2024-02-21T07:14:32;13.70;;;4.63;;
67053;SDS011;53960;51.826;5.850;2024-02-21T07:16:58;23.93;;;5.53;;
67053;SDS011;53960;51.826;5.850;2024-02-21T07:19:23;16.10;;;4.40;;
67053;SDS011;53960;51.826;5.850;2024-02-21T07:21:48;18.75;;;5.60;;
67053;SDS011;53960;51.826;5.850;2024-02-21T07:24:14;16.43;;;5.30;;
67053;SDS011;53960;51.826;5.850;2024-02-21T07:26:43;15.33;;;5.13;;
67053;SDS011;53960;51.826;5.850;2024-02-21T07:29:09;12.98;;;5.28;;
67053;SDS011;53960;51.826;5.850;2024-02-21T07:31:40;15.87;;;5.20;;
67053;SDS011;53960;51.826;5.850;2024-02-21T07:34:06;14.35;;;5.18;;
67053;SDS011;53960;51.826;5.850;2024-02-21T07:36:32;16.90;;;5.50;;
67053;SDS011;53960;51.826;5.850;2024-02-21T07:38:57;15.90;;;6.03;;
67053;SDS011;53960;51.826;5.850;2024-02-21T07:41:22;15.60;;;5.73;;
67053;SDS011;53960;51.826;5.850;2024-02-21T07:43:48;17.40;;;5.33;;
67053;SDS011;53960;51.826;5.850;2024-02-21T07:46:17;15.48;;;5.47;;
67053;SDS011;53960;51.826;5.850;2024-02-21T07:48:42;14.90;;;5.32;;
67053;SDS011;53960;51.826;5.850;2024-02-21T07:51:07;15.07;;;5.43;;
67053;SDS011;53960;51.826;5.850;2024-02-21T07:53:33;13.60;;;5.10;;
67053;SDS011;53960;51.826;5.850;2024-02-21T07:55:58;14.47;;;5.17;;
67053;SDS011;53960;51.826;5.850;2024-02-21T07:58:24;13.98;;;4.75;;
67053;SDS011;53960;51.826;5.850;2024-02-21T08:00:50;16.37;;;5.57;;
67053;SDS011;53960;51.826;5.850;2024-02-21T08:03:15;16.63;;;5.30;;
67053;SDS011;53960;51.826;5.850;2024-02-21T08:05:42;18.88;;;5.60;;
67053;SDS011;53960;51.826;5.850;2024-02-21T08:08:08;15.07;;;5.50;;
67053;SDS011;53960;51.826;5.850;2024-02-21T08:10:33;14.02;;;5.32;;
67053;SDS011;53960;51.826;5.850;2024-02-21T08:12:58;13.93;;;5.00;;
67053;SDS011;53960;51.826;5.850;2024-02-21T08:15:24;17.70;;;6.03;;
67053;SDS011;53960;51.826;5.850;2024-02-21T08:17:53;17.92;;;5.50;;
67053;SDS011;53960;51.826;5.850;2024-02-21T08:20:18;16.27;;;5.27;;
67053;SDS011;53960;51.826;5.850;2024-02-21T08:22:44;14.50;;;5.53;;
67053;SDS011;53960;51.826;5.850;2024-02-21T08:25:09;14.27;;;5.40;;
67053;SDS011;53960;51.826;5.850;2024-02-21T08:27:34;13.63;;;5.37;;
67053;SDS011;53960;51.826;5.850;2024-02-21T08:30:00;14.77;;;5.57;;
67053;SDS011;53960;51.826;5.850;2024-02-21T08:32:25;18.60;;;5.60;;
67053;SDS011;53960;51.826;5.850;2024-02-21T08:34:51;15.27;;;6.03;;
67053;SDS011;53960;51.826;5.850;2024-02-21T08:37:16;12.97;;;5.30;;
67053;SDS011;53960;51.826;5.850;2024-02-21T08:39:41;16.40;;;5.83;;
67053;SDS011;53960;51.826;5.850;2024-02-21T08:42:07;14.47;;;6.53;;
67053;SDS011;53960;51.826;5.850;2024-02-21T08:44:32;17.33;;;5.40;;
67053;SDS011;53960;51.826;5.850;2024-02-21T08:46:57;14.67;;;5.10;;
67053;SDS011;53960;51.826;5.850;2024-02-21T08:49:23;15.20;;;5.70;;
67053;SDS011;53960;51.826;5.850;2024-02-21T08:51:48;19.63;;;5.57;;
67053;SDS011;53960;51.826;5.850;2024-02-21T08:54:13;14.17;;;5.23;;
67053;SDS011;53960;51.826;5.850;2024-02-21T08:56:39;14.27;;;5.33;;
67053;SDS011;53960;51.826;5.850;2024-02-21T08:59:04;14.98;;;5.10;;
67053;SDS011;53960;51.826;5.850;2024-02-21T09:01:29;15.43;;;6.20;;
67053;SDS011;53960;51.826;5.850;2024-02-21T09:03:54;15.07;;;5.37;;
67053;SDS011;53960;51.826;5.850;2024-02-21T09:06:21;14.90;;;5.68;;
67053;SDS011;53960;51.826;5.850;2024-02-21T09:08:47;13.87;;;5.03;;
67053;SDS011;53960;51.826;5.850;2024-02-21T09:11:13;16.08;;;4.75;;
67053;SDS011;53960;51.826;5.850;2024-02-21T09:13:38;14.83;;;4.80;;
67053;SDS011;53960;51.826;5.850;2024-02-21T09:16:03;12.93;;;4.50;;
67053;SDS011;53960;51.826;5.850;2024-02-21T09:18:29;13.00;;;4.90;;
67053;SDS011;53960;51.826;5.850;2024-02-21T09:20:54;14.13;;;4.73;;
67053;SDS011;53960;51.826;5.850;2024-02-21T09:23:20;14.50;;;5.17;;
67053;SDS011;53960;51.826;5.850;2024-02-21T09:25:45;10.27;;;4.13;;
67053;SDS011;53960;51.826;5.850;2024-02-21T09:28:11;11.83;;;4.17;;
67053;SDS011;53960;51.826;5.850;2024-02-21T09:30:38;12.35;;;4.70;;
67053;SDS011;53960;51.826;5.850;2024-02-21T09:33:03;11.80;;;4.23;;
67053;SDS011;53960;51.826;5.850;2024-02-21T09:35:30;11.07;;;4.18;;
67053;SDS011;53960;51.826;5.850;2024-02-21T09:37:55;11.32;;;3.83;;
67053;SDS011;53960;51.826;5.850;2024-02-21T09:40:20;11.53;;;4.27;;
67053;SDS011;53960;51.826;5.850;2024-02-21T09:42:47;13.90;;;4.77;;
67053;SDS011;53960;51.826;5.850;2024-02-21T09:45:23;10.90;;;3.90;;
67053;SDS011;53960;51.826;5.850;2024-02-21T09:47:58;12.38;;;4.93;;
67053;SDS011;53960;51.826;5.850;2024-02-21T09:50:38;15.18;;;5.13;;
67053;SDS011;53960;51.826;5.850;2024-02-21T09:53:05;10.70;;;4.23;;
67053;SDS011;53960;51.826;5.850;2024-02-21T09:55:32;11.88;;;4.53;;
67053;SDS011;53960;51.826;5.850;2024-02-21T09:57:59;12.00;;;4.55;;
67053;SDS011;53960;51.826;5.850;2024-02-21T10:00:26;11.13;;;4.63;;
67053;SDS011;53960;51.826;5.850;2024-02-21T10:02:52;14.02;;;4.45;;
67053;SDS011;53960;51.826;5.850;2024-02-21T10:05:18;11.20;;;4.70;;
67053;SDS011;53960;51.826;5.850;2024-02-21T10:07:43;12.13;;;4.83;;
67053;SDS011;53960;51.826;5.850;2024-02-21T10:10:09;12.43;;;4.53;;
67053;SDS011;53960;51.826;5.850;2024-02-21T10:12:35;11.30;;;3.88;;
67053;SDS011;53960;51.826;5.850;2024-02-21T10:15:04;11.13;;;4.20;;
67053;SDS011;53960;51.826;5.850;2024-02-21T10:17:30;13.25;;;4.70;;
67053;SDS011;53960;51.826;5.850;2024-02-21T10:20:06;11.85;;;4.18;;
67053;SDS011;53960;51.826;5.850;2024-02-21T10:22:34;9.87;;;3.73;;
67053;SDS011;53960;51.826;5.850;2024-02-21T10:25:10;11.20;;;4.20;;
67053;SDS011;53960;51.826;5.850;2024-02-21T10:27:37;10.63;;;3.80;;
67053;SDS011;53960;51.826;5.850;2024-02-21T10:30:04;10.25;;;3.88;;
67053;SDS011;53960;51.826;5.850;2024-02-21T10:32:33;10.40;;;3.72;;
67053;SDS011;53960;51.826;5.850;2024-02-21T10:35:02;12.23;;;4.33;;
67053;SDS011;53960;51.826;5.850;2024-02-21T10:37:29;11.93;;;4.40;;
67053;SDS011;53960;51.826;5.850;2024-02-21T10:39:55;13.20;;;4.20;;
67053;SDS011;53960;51.826;5.850;2024-02-21T10:42:21;12.30;;;4.70;;
67053;SDS011;53960;51.826;5.850;2024-02-21T10:44:48;12.50;;;4.30;;
67053;SDS011;53960;51.826;5.850;2024-02-21T10:47:16;10.97;;;4.77;;
67053;SDS011;53960;51.826;5.850;2024-02-21T10:49:46;13.32;;;5.03;;
67053;SDS011;53960;51.826;5.850;2024-02-21T10:52:22;13.13;;;5.07;;
67053;SDS011;53960;51.826;5.850;2024-02-21T10:55:15;14.02;;;4.85;;
67053;SDS011;53960;51.826;5.850;2024-02-21T10:57:44;11.95;;;5.57;;
67053;SDS011;53960;51.826;5.850;2024-02-21T11:00:11;14.70;;;5.87;;
67053;SDS011;53960;51.826;5.850;2024-02-21T11:02:39;12.13;;;4.97;;
67053;SDS011;53960;51.826;5.850;2024-02-21T11:05:05;11.05;;;4.65;;
67053;SDS011;53960;51.826;5.850;2024-02-21T11:07:31;13.02;;;4.20;;
67053;SDS011;53960;51.826;5.850;2024-02-21T11:09:57;12.48;;;4.68;;
67053;SDS011;53960;51.826;5.850;2024-02-21T11:12:24;13.00;;;4.40;;
67053;SDS011;53960;51.826;5.850;2024-02-21T11:14:51;11.50;;;4.40;;
67053;SDS011;53960;51.826;5.850;2024-02-21T11:17:16;13.43;;;4.50;;
67053;SDS011;53960;51.826;5.850;2024-02-21T11:19:43;12.15;;;4.60;;
67053;SDS011;53960;51.826;5.850;2024-02-21T11:22:15;12.40;;;4.53;;
67053;SDS011;53960;51.826;5.850;2024-02-21T11:24:41;14.18;;;5.03;;
67053;SDS011;53960;51.826;5.850;2024-02-21T11:29:46;13.83;;;4.50;;
67053;SDS011;53960;51.826;5.850;2024-02-21T11:32:20;11.38;;;4.25;;
67053;SDS011;53960;51.826;5.850;2024-02-21T11:34:59;12.38;;;4.63;;
67053;SDS011;53960;51.826;5.850;2024-02-21T11:37:27;11.98;;;5.10;;
67053;SDS011;53960;51.826;5.850;2024-02-21T11:39:53;11.23;;;4.90;;
67053;SDS011;53960;51.826;5.850;2024-02-21T11:42:19;12.57;;;4.77;;
67053;SDS011;53960;51.826;5.850;2024-02-21T11:44:45;12.88;;;4.50;;
67053;SDS011;53960;51.826;5.850;2024-02-21T11:47:10;14.63;;;4.37;;
67053;SDS011;53960;51.826;5.850;2024-02-21T11:49:36;14.23;;;4.57;;
67053;SDS011;53960;51.826;5.850;2024-02-21T11:52:06;11.50;;;3.85;;
67053;SDS011;53960;51.826;5.850;2024-02-21T11:54:32;12.13;;;4.07;;
67053;SDS011;53960;51.826;5.850;2024-02-21T11:56:57;10.27;;;3.40;;
67053;SDS011;53960;51.826;5.850;2024-02-21T11:59:23;11.57;;;3.50;;
67053;SDS011;53960;51.826;5.850;2024-02-21T12:01:48;10.17;;;4.00;;
67053;SDS011;53960;51.826;5.850;2024-02-21T12:04:15;11.60;;;3.90;;
67053;SDS011;53960;51.826;5.850;2024-02-21T12:06:42;15.52;;;5.05;;
67053;SDS011;53960;51.826;5.850;2024-02-21T12:09:09;10.68;;;3.70;;
67053;SDS011;53960;51.826;5.850;2024-02-21T12:11:34;11.23;;;3.93;;
67053;SDS011;53960;51.826;5.850;2024-02-21T12:14:00;10.10;;;3.87;;
67053;SDS011;53960;51.826;5.850;2024-02-21T12:16:32;9.07;;;3.65;;
67053;SDS011;53960;51.826;5.850;2024-02-21T12:18:58;11.32;;;3.58;;
67053;SDS011;53960;51.826;5.850;2024-02-21T12:21:25;8.93;;;3.33;;
67053;SDS011;53960;51.826;5.850;2024-02-21T12:23:54;11.37;;;3.67;;
67053;SDS011;53960;51.826;5.850;2024-02-21T12:26:20;11.88;;;3.72;;
67053;SDS011;53960;51.826;5.850;2024-02-21T12:28:45;11.63;;;3.80;;
67053;SDS011;53960;51.826;5.850;2024-02-21T12:31:10;11.17;;;3.47;;
67053;SDS011;53960;51.826;5.850;2024-02-21T12:33:36;11.95;;;4.10;;
67053;SDS011;53960;51.826;5.850;2024-02-21T12:36:01;13.07;;;3.60;;
67053;SDS011;53960;51.826;5.850;2024-02-21T12:38:28;12.25;;;3.75;;
67053;SDS011;53960;51.826;5.850;2024-02-21T12:40:54;10.60;;;3.57;;
67053;SDS011;53960;51.826;5.850;2024-02-21T12:43:20;12.15;;;4.03;;
67053;SDS011;53960;51.826;5.850;2024-02-21T12:45:45;11.80;;;3.60;;
67053;SDS011;53960;51.826;5.850;2024-02-21T12:48:10;10.70;;;3.70;;
67053;SDS011;53960;51.826;5.850;2024-02-21T12:50:35;13.37;;;3.70;;
67053;SDS011;53960;51.826;5.850;2024-02-21T12:53:01;12.13;;;3.73;;
67053;SDS011;53960;51.826;5.850;2024-02-21T12:55:26;12.60;;;3.73;;
67053;SDS011;53960;51.826;5.850;2024-02-21T12:57:52;13.15;;;4.03;;
67053;SDS011;53960;51.826;5.850;2024-02-21T13:00:17;12.37;;;4.13;;
67053;SDS011;53960;51.826;5.850;2024-02-21T13:02:42;11.00;;;3.53;;
67053;SDS011;53960;51.826;5.850;2024-02-21T13:05:08;11.67;;;3.60;;
67053;SDS011;53960;51.826;5.850;2024-02-21T13:07:33;14.13;;;3.60;;
67053;SDS011;53960;51.826;5.850;2024-02-21T13:09:59;12.48;;;3.63;;
67053;SDS011;53960;51.826;5.850;2024-02-21T13:12:25;11.60;;;4.57;;
67053;SDS011;53960;51.826;5.850;2024-02-21T13:14:53;12.32;;;3.80;;
67053;SDS011;53960;51.826;5.850;2024-02-21T13:17:19;9.33;;;3.73;;
67053;SDS011;53960;51.826;5.850;2024-02-21T13:19:44;9.87;;;3.50;;
67053;SDS011;53960;51.826;5.850;2024-02-21T13:22:10;10.47;;;3.40;;
67053;SDS011;53960;51.826;5.850;2024-02-21T13:24:36;12.77;;;3.60;;
67053;SDS011;53960;51.826;5.850;2024-02-21T13:27:01;14.40;;;3.70;;
67053;SDS011;53960;51.826;5.850;2024-02-21T13:29:28;11.10;;;3.50;;
67053;SDS011;53960;51.826;5.850;2024-02-21T13:31:53;9.93;;;3.30;;
67053;SDS011;53960;51.826;5.850;2024-02-21T13:34:19;11.75;;;3.63;;
67053;SDS011;53960;51.826;5.850;2024-02-21T13:36:44;10.70;;;3.27;;
67053;SDS011;53960;51.826;5.850;2024-02-21T13:39:10;12.30;;;3.60;;
67053;SDS011;53960;51.826;5.850;2024-02-21T13:41:40;12.03;;;3.60;;
67053;SDS011;53960;51.826;5.850;2024-02-21T13:44:05;9.88;;;3.38;;
67053;SDS011;53960;51.826;5.850;2024-02-21T13:46:31;11.20;;;3.57;;
67053;SDS011;53960;51.826;5.850;2024-02-21T13:49:02;8.90;;;3.33;;
67053;SDS011;53960;51.826;5.850;2024-02-21T13:51:34;9.98;;;3.30;;
67053;SDS011;53960;51.826;5.850;2024-02-21T13:54:03;14.18;;;3.85;;
67053;SDS011;53960;51.826;5.850;2024-02-21T13:56:30;10.63;;;3.30;;
67053;SDS011;53960;51.826;5.850;2024-02-21T13:58:55;10.02;;;3.13;;
67053;SDS011;53960;51.826;5.850;2024-02-21T14:01:21;10.03;;;3.13;;
67053;SDS011;53960;51.826;5.850;2024-02-21T14:03:46;9.10;;;3.03;;
67053;SDS011;53960;51.826;5.850;2024-02-21T14:06:11;11.02;;;3.22;;
67053;SDS011;53960;51.826;5.850;2024-02-21T14:08:37;9.63;;;2.80;;
67053;SDS011;53960;51.826;5.850;2024-02-21T14:11:05;8.07;;;2.33;;
67053;SDS011;53960;51.826;5.850;2024-02-21T14:13:31;9.45;;;2.53;;
67053;SDS011;53960;51.826;5.850;2024-02-21T14:15:56;8.60;;;2.37;;
67053;SDS011;53960;51.826;5.850;2024-02-21T14:18:22;10.53;;;3.03;;
67053;SDS011;53960;51.826;5.850;2024-02-21T14:20:47;7.87;;;2.30;;
67053;SDS011;53960;51.826;5.850;2024-02-21T14:23:12;7.93;;;2.37;;
67053;SDS011;53960;51.826;5.850;2024-02-21T14:25:38;10.30;;;2.60;;
67053;SDS011;53960;51.826;5.850;2024-02-21T14:28:04;9.25;;;2.50;;
67053;SDS011;53960;51.826;5.850;2024-02-21T14:30:30;9.50;;;2.30;;
67053;SDS011;53960;51.826;5.850;2024-02-21T14:32:55;10.60;;;2.50;;